sensor_id;sensor_type;location;lat;lon;timestamp;temperature;humidity
8994;DHT22;4532;50.886;4.700;2023-03-01T00:01:50;2.60;93.80
8994;DHT22;4532;50.886;4.700;2023-03-01T00:04:19;2.60;93.80
8994;DHT22;4532;50.886;4.700;2023-03-01T00:06:49;2.60;93.80
8994;DHT22;4532;50.886;4.700;2023-03-01T00:09:18;2.60;93.80
8994;DHT22;4532;50.886;4.700;2023-03-01T00:11:48;2.60;93.80
8994;DHT22;4532;50.886;4.700;2023-03-01T00:14:18;2.60;93.80
8994;DHT22;4532;50.886;4.700;2023-03-01T00:16:47;2.60;93.80
8994;DHT22;4532;50.886;4.700;2023-03-01T00:19:17;2.50;93.70
8994;DHT22;4532;50.886;4.700;2023-03-01T00:21:47;2.50;93.80
8994;DHT22;4532;50.886;4.700;2023-03-01T00:24:14;2.50;93.80
8994;DHT22;4532;50.886;4.700;2023-03-01T00:26:46;2.50;93.80
8994;DHT22;4532;50.886;4.700;2023-03-01T00:29:13;2.50;93.80
8994;DHT22;4532;50.886;4.700;2023-03-01T00:31:43;2.50;93.80
8994;DHT22;4532;50.886;4.700;2023-03-01T00:34:10;2.50;93.80
8994;DHT22;4532;50.886;4.700;2023-03-01T00:36:39;2.50;93.80
8994;DHT22;4532;50.886;4.700;2023-03-01T00:39:13;2.40;93.80
8994;DHT22;4532;50.886;4.700;2023-03-01T00:41:43;2.40;93.90
8994;DHT22;4532;50.886;4.700;2023-03-01T00:44:13;2.40;93.80
8994;DHT22;4532;50.886;4.700;2023-03-01T00:46:40;2.40;93.80
8994;DHT22;4532;50.886;4.700;2023-03-01T00:49:07;2.40;93.80
8994;DHT22;4532;50.886;4.700;2023-03-01T00:51:35;2.40;93.80
8994;DHT22;4532;50.886;4.700;2023-03-01T00:54:03;2.40;93.80
8994;DHT22;4532;50.886;4.700;2023-03-01T00:56:30;2.30;93.80
8994;DHT22;4532;50.886;4.700;2023-03-01T00:58:59;2.30;93.80
8994;DHT22;4532;50.886;4.700;2023-03-01T01:01:31;2.30;93.80
8994;DHT22;4532;50.886;4.700;2023-03-01T01:04:16;2.30;93.80
8994;DHT22;4532;50.886;4.700;2023-03-01T01:06:45;2.30;93.80
8994;DHT22;4532;50.886;4.700;2023-03-01T01:09:16;2.30;93.80
8994;DHT22;4532;50.886;4.700;2023-03-01T01:11:48;2.30;93.80
8994;DHT22;4532;50.886;4.700;2023-03-01T01:14:19;2.30;93.80
8994;DHT22;4532;50.886;4.700;2023-03-01T01:16:48;2.20;93.80
8994;DHT22;4532;50.886;4.700;2023-03-01T01:19:15;2.20;93.80
8994;DHT22;4532;50.886;4.700;2023-03-01T01:21:45;2.20;93.80
8994;DHT22;4532;50.886;4.700;2023-03-01T01:24:16;2.20;93.80
8994;DHT22;4532;50.886;4.700;2023-03-01T01:26:46;2.20;93.80
8994;DHT22;4532;50.886;4.700;2023-03-01T01:29:13;2.20;93.80
8994;DHT22;4532;50.886;4.700;2023-03-01T01:31:42;2.10;93.80
8994;DHT22;4532;50.886;4.700;2023-03-01T01:34:17;2.10;93.80
8994;DHT22;4532;50.886;4.700;2023-03-01T01:36:51;2.00;93.90
8994;DHT22;4532;50.886;4.700;2023-03-01T01:39:24;2.00;93.80
8994;DHT22;4532;50.886;4.700;2023-03-01T01:41:51;2.00;93.80
8994;DHT22;4532;50.886;4.700;2023-03-01T01:44:24;2.00;93.90
8994;DHT22;4532;50.886;4.700;2023-03-01T01:49:57;2.00;93.80
8994;DHT22;4532;50.886;4.700;2023-03-01T01:52:30;2.00;93.80
8994;DHT22;4532;50.886;4.700;2023-03-01T01:55:07;2.00;93.90
8994;DHT22;4532;50.886;4.700;2023-03-01T01:57:56;2.00;93.90
8994;DHT22;4532;50.886;4.700;2023-03-01T02:00:30;2.00;93.90
8994;DHT22;4532;50.886;4.700;2023-03-01T02:03:04;1.90;93.90
8994;DHT22;4532;50.886;4.700;2023-03-01T02:06:27;1.90;93.80
8994;DHT22;4532;50.886;4.700;2023-03-01T02:08:36;1.90;93.80
8994;DHT22;4532;50.886;4.700;2023-03-01T02:11:07;1.90;93.80
8994;DHT22;4532;50.886;4.700;2023-03-01T02:13:40;1.80;93.80
8994;DHT22;4532;50.886;4.700;2023-03-01T02:16:10;1.80;93.80
8994;DHT22;4532;50.886;4.700;2023-03-01T02:18:38;1.80;93.90
8994;DHT22;4532;50.886;4.700;2023-03-01T02:24:26;1.80;94.10
8994;DHT22;4532;50.886;4.700;2023-03-01T02:26:58;1.70;94.00
8994;DHT22;4532;50.886;4.700;2023-03-01T02:29:26;1.70;94.00
8994;DHT22;4532;50.886;4.700;2023-03-01T02:31:57;1.70;94.00
8994;DHT22;4532;50.886;4.700;2023-03-01T02:34:26;1.70;93.90
8994;DHT22;4532;50.886;4.700;2023-03-01T02:37:01;1.80;93.90
8994;DHT22;4532;50.886;4.700;2023-03-01T02:39:44;1.70;93.90
8994;DHT22;4532;50.886;4.700;2023-03-01T02:42:15;1.70;93.90
8994;DHT22;4532;50.886;4.700;2023-03-01T02:44:46;1.70;93.80
8994;DHT22;4532;50.886;4.700;2023-03-01T02:47:13;1.70;93.80
8994;DHT22;4532;50.886;4.700;2023-03-01T02:49:40;1.70;93.80
8994;DHT22;4532;50.886;4.700;2023-03-01T02:55:13;1.70;93.80
8994;DHT22;4532;50.886;4.700;2023-03-01T02:57:44;1.70;93.80
8994;DHT22;4532;50.886;4.700;2023-03-01T03:00:14;1.60;93.70
8994;DHT22;4532;50.886;4.700;2023-03-01T03:02:52;1.60;93.70
8994;DHT22;4532;50.886;4.700;2023-03-01T03:05:28;1.60;93.80
8994;DHT22;4532;50.886;4.700;2023-03-01T03:08:01;1.60;93.80
8994;DHT22;4532;50.886;4.700;2023-03-01T03:10:32;1.50;93.70
8994;DHT22;4532;50.886;4.700;2023-03-01T03:13:10;1.50;93.70
8994;DHT22;4532;50.886;4.700;2023-03-01T03:15:40;1.50;93.70
8994;DHT22;4532;50.886;4.700;2023-03-01T03:18:14;1.40;93.70
8994;DHT22;4532;50.886;4.700;2023-03-01T03:20:44;1.40;93.70
8994;DHT22;4532;50.886;4.700;2023-03-01T03:23:12;1.40;93.80
8994;DHT22;4532;50.886;4.700;2023-03-01T03:25:39;1.40;93.90
8994;DHT22;4532;50.886;4.700;2023-03-01T03:28:08;1.40;93.80
8994;DHT22;4532;50.886;4.700;2023-03-01T03:30:41;1.40;93.80
8994;DHT22;4532;50.886;4.700;2023-03-01T03:33:11;1.40;93.80
8994;DHT22;4532;50.886;4.700;2023-03-01T03:35:45;1.30;93.70
8994;DHT22;4532;50.886;4.700;2023-03-01T03:38:18;1.30;93.80
8994;DHT22;4532;50.886;4.700;2023-03-01T03:40:54;1.30;93.80
8994;DHT22;4532;50.886;4.700;2023-03-01T03:43:28;1.30;93.80
8994;DHT22;4532;50.886;4.700;2023-03-01T03:46:00;1.30;93.80
8994;DHT22;4532;50.886;4.700;2023-03-01T03:48:40;1.20;93.80
8994;DHT22;4532;50.886;4.700;2023-03-01T03:51:13;1.30;93.80
8994;DHT22;4532;50.886;4.700;2023-03-01T03:53:41;1.20;93.80
8994;DHT22;4532;50.886;4.700;2023-03-01T03:56:11;1.30;93.80
8994;DHT22;4532;50.886;4.700;2023-03-01T03:58:38;1.20;93.70
8994;DHT22;4532;50.886;4.700;2023-03-01T04:01:06;1.20;93.70
8994;DHT22;4532;50.886;4.700;2023-03-01T04:03:33;1.20;93.80
8994;DHT22;4532;50.886;4.700;2023-03-01T04:06:04;1.20;93.80
8994;DHT22;4532;50.886;4.700;2023-03-01T04:08:32;1.20;93.80
8994;DHT22;4532;50.886;4.700;2023-03-01T04:11:03;1.20;93.80
8994;DHT22;4532;50.886;4.700;2023-03-01T04:13:57;1.10;93.70
8994;DHT22;4532;50.886;4.700;2023-03-01T04:16:29;1.10;93.70
8994;DHT22;4532;50.886;4.700;2023-03-01T04:18:59;1.10;93.80
8994;DHT22;4532;50.886;4.700;2023-03-01T04:21:27;1.10;93.90
8994;DHT22;4532;50.886;4.700;2023-03-01T04:23:57;1.10;93.80
8994;DHT22;4532;50.886;4.700;2023-03-01T04:26:24;1.10;93.90
8994;DHT22;4532;50.886;4.700;2023-03-01T04:28:56;1.00;94.10
8994;DHT22;4532;50.886;4.700;2023-03-01T04:31:25;1.00;94.10
8994;DHT22;4532;50.886;4.700;2023-03-01T04:33:55;1.00;94.10
8994;DHT22;4532;50.886;4.700;2023-03-01T04:36:25;1.00;94.00
8994;DHT22;4532;50.886;4.700;2023-03-01T04:38:55;1.00;94.20
8994;DHT22;4532;50.886;4.700;2023-03-01T04:41:23;1.00;94.10
8994;DHT22;4532;50.886;4.700;2023-03-01T04:43:51;1.00;94.00
8994;DHT22;4532;50.886;4.700;2023-03-01T04:46:20;1.00;94.00
8994;DHT22;4532;50.886;4.700;2023-03-01T04:48:50;1.00;94.00
8994;DHT22;4532;50.886;4.700;2023-03-01T04:51:17;1.00;93.90
8994;DHT22;4532;50.886;4.700;2023-03-01T04:53:45;1.00;93.90
8994;DHT22;4532;50.886;4.700;2023-03-01T04:56:15;1.00;94.00
8994;DHT22;4532;50.886;4.700;2023-03-01T04:58:42;1.00;94.00
8994;DHT22;4532;50.886;4.700;2023-03-01T05:01:17;1.00;93.80
8994;DHT22;4532;50.886;4.700;2023-03-01T05:03:50;0.90;94.00
8994;DHT22;4532;50.886;4.700;2023-03-01T05:06:19;0.90;94.10
8994;DHT22;4532;50.886;4.700;2023-03-01T05:08:46;0.90;94.00
8994;DHT22;4532;50.886;4.700;2023-03-01T05:11:14;0.90;93.90
8994;DHT22;4532;50.886;4.700;2023-03-01T05:13:43;0.90;93.90
8994;DHT22;4532;50.886;4.700;2023-03-01T05:16:15;0.90;93.90
8994;DHT22;4532;50.886;4.700;2023-03-01T05:18:46;0.90;93.90
8994;DHT22;4532;50.886;4.700;2023-03-01T05:21:14;0.80;93.90
8994;DHT22;4532;50.886;4.700;2023-03-01T05:23:45;0.80;93.90
8994;DHT22;4532;50.886;4.700;2023-03-01T05:26:16;0.80;94.00
8994;DHT22;4532;50.886;4.700;2023-03-01T05:29:07;0.80;94.20
8994;DHT22;4532;50.886;4.700;2023-03-01T05:31:36;0.80;93.90
8994;DHT22;4532;50.886;4.700;2023-03-01T05:34:07;0.80;93.90
8994;DHT22;4532;50.886;4.700;2023-03-01T05:36:38;0.70;93.80
8994;DHT22;4532;50.886;4.700;2023-03-01T05:39:08;0.70;93.80
8994;DHT22;4532;50.886;4.700;2023-03-01T05:41:37;0.70;93.80
8994;DHT22;4532;50.886;4.700;2023-03-01T05:44:06;0.70;93.80
8994;DHT22;4532;50.886;4.700;2023-03-01T05:46:36;0.60;93.80
8994;DHT22;4532;50.886;4.700;2023-03-01T05:49:05;0.60;93.80
8994;DHT22;4532;50.886;4.700;2023-03-01T05:51:32;0.60;93.90
8994;DHT22;4532;50.886;4.700;2023-03-01T05:54:02;0.60;93.80
8994;DHT22;4532;50.886;4.700;2023-03-01T05:56:29;0.60;93.90
8994;DHT22;4532;50.886;4.700;2023-03-01T05:58:59;0.60;93.90
8994;DHT22;4532;50.886;4.700;2023-03-01T06:01:28;0.60;93.90
8994;DHT22;4532;50.886;4.700;2023-03-01T06:03:56;0.60;93.90
8994;DHT22;4532;50.886;4.700;2023-03-01T06:06:24;0.60;94.00
8994;DHT22;4532;50.886;4.700;2023-03-01T06:08:55;0.50;94.30
8994;DHT22;4532;50.886;4.700;2023-03-01T06:11:25;0.50;94.00
8994;DHT22;4532;50.886;4.700;2023-03-01T06:13:52;0.50;94.00
8994;DHT22;4532;50.886;4.700;2023-03-01T06:16:19;0.50;94.00
8994;DHT22;4532;50.886;4.700;2023-03-01T06:18:47;0.50;94.10
8994;DHT22;4532;50.886;4.700;2023-03-01T06:21:18;0.50;94.00
8994;DHT22;4532;50.886;4.700;2023-03-01T06:23:48;0.50;93.90
8994;DHT22;4532;50.886;4.700;2023-03-01T06:26:15;0.50;93.90
8994;DHT22;4532;50.886;4.700;2023-03-01T06:28:42;0.50;93.90
8994;DHT22;4532;50.886;4.700;2023-03-01T06:31:17;0.50;93.80
8994;DHT22;4532;50.886;4.700;2023-03-01T06:33:49;0.50;93.90
8994;DHT22;4532;50.886;4.700;2023-03-01T06:36:18;0.50;93.90
8994;DHT22;4532;50.886;4.700;2023-03-01T06:38:47;0.50;93.90
8994;DHT22;4532;50.886;4.700;2023-03-01T06:41:17;0.50;94.10
8994;DHT22;4532;50.886;4.700;2023-03-01T06:43:46;0.50;94.00
8994;DHT22;4532;50.886;4.700;2023-03-01T06:46:18;0.40;94.00
8994;DHT22;4532;50.886;4.700;2023-03-01T06:48:48;0.40;93.90
8994;DHT22;4532;50.886;4.700;2023-03-01T06:51:16;0.40;93.90
8994;DHT22;4532;50.886;4.700;2023-03-01T06:53:46;0.50;93.90
8994;DHT22;4532;50.886;4.700;2023-03-01T06:56:15;0.50;94.00
8994;DHT22;4532;50.886;4.700;2023-03-01T06:58:42;0.50;93.90
8994;DHT22;4532;50.886;4.700;2023-03-01T07:01:10;0.50;94.10
8994;DHT22;4532;50.886;4.700;2023-03-01T07:03:37;0.50;94.10
8994;DHT22;4532;50.886;4.700;2023-03-01T07:06:04;0.50;94.10
8994;DHT22;4532;50.886;4.700;2023-03-01T07:08:31;0.50;94.50
8994;DHT22;4532;50.886;4.700;2023-03-01T07:10:59;0.50;94.20
8994;DHT22;4532;50.886;4.700;2023-03-01T07:13:31;0.60;94.30
8994;DHT22;4532;50.886;4.700;2023-03-01T07:15:58;0.60;94.30
8994;DHT22;4532;50.886;4.700;2023-03-01T07:18:27;0.60;94.10
8994;DHT22;4532;50.886;4.700;2023-03-01T07:21:06;0.60;94.50
8994;DHT22;4532;50.886;4.700;2023-03-01T07:23:36;0.60;94.30
8994;DHT22;4532;50.886;4.700;2023-03-01T07:26:05;0.70;94.30
8994;DHT22;4532;50.886;4.700;2023-03-01T07:28:37;0.70;94.30
8994;DHT22;4532;50.886;4.700;2023-03-01T07:31:06;0.70;94.30
8994;DHT22;4532;50.886;4.700;2023-03-01T07:33:35;0.80;94.40
8994;DHT22;4532;50.886;4.700;2023-03-01T07:36:03;0.70;95.10
8994;DHT22;4532;50.886;4.700;2023-03-01T07:38:33;0.80;94.50
8994;DHT22;4532;50.886;4.700;2023-03-01T07:41:06;0.80;94.60
8994;DHT22;4532;50.886;4.700;2023-03-01T07:43:33;0.80;94.70
8994;DHT22;4532;50.886;4.700;2023-03-01T07:46:03;0.80;95.00
8994;DHT22;4532;50.886;4.700;2023-03-01T07:48:34;0.70;95.70
8994;DHT22;4532;50.886;4.700;2023-03-01T07:51:05;0.80;95.00
8994;DHT22;4532;50.886;4.700;2023-03-01T07:53:34;0.80;94.90
8994;DHT22;4532;50.886;4.700;2023-03-01T07:56:11;0.90;95.10
8994;DHT22;4532;50.886;4.700;2023-03-01T07:58:42;0.90;94.90
8994;DHT22;4532;50.886;4.700;2023-03-01T08:01:19;1.00;94.80
8994;DHT22;4532;50.886;4.700;2023-03-01T08:03:49;1.00;94.90
8994;DHT22;4532;50.886;4.700;2023-03-01T08:06:17;1.00;95.20
8994;DHT22;4532;50.886;4.700;2023-03-01T08:08:45;1.10;95.20
8994;DHT22;4532;50.886;4.700;2023-03-01T08:11:14;1.10;95.00
8994;DHT22;4532;50.886;4.700;2023-03-01T08:13:47;1.20;95.10
8994;DHT22;4532;50.886;4.700;2023-03-01T08:16:23;1.20;95.10
8994;DHT22;4532;50.886;4.700;2023-03-01T08:18:50;1.30;95.10
8994;DHT22;4532;50.886;4.700;2023-03-01T08:21:18;1.40;95.10
8994;DHT22;4532;50.886;4.700;2023-03-01T08:23:51;1.40;95.20
8994;DHT22;4532;50.886;4.700;2023-03-01T08:26:21;1.30;95.80
8994;DHT22;4532;50.886;4.700;2023-03-01T08:28:49;1.40;95.50
8994;DHT22;4532;50.886;4.700;2023-03-01T08:31:18;1.40;95.30
8994;DHT22;4532;50.886;4.700;2023-03-01T08:33:52;1.50;95.50
8994;DHT22;4532;50.886;4.700;2023-03-01T08:36:30;1.60;95.50
8994;DHT22;4532;50.886;4.700;2023-03-01T08:39:00;1.60;95.50
8994;DHT22;4532;50.886;4.700;2023-03-01T08:41:28;1.70;95.80
8994;DHT22;4532;50.886;4.700;2023-03-01T08:43:55;1.70;95.40
8994;DHT22;4532;50.886;4.700;2023-03-01T08:46:36;1.80;95.40
8994;DHT22;4532;50.886;4.700;2023-03-01T08:49:16;1.80;95.80
8994;DHT22;4532;50.886;4.700;2023-03-01T08:51:46;1.90;95.90
8994;DHT22;4532;50.886;4.700;2023-03-01T08:54:19;1.90;96.30
8994;DHT22;4532;50.886;4.700;2023-03-01T08:56:49;1.90;95.80
8994;DHT22;4532;50.886;4.700;2023-03-01T08:59:22;2.00;96.00
8994;DHT22;4532;50.886;4.700;2023-03-01T09:01:56;2.00;96.20
8994;DHT22;4532;50.886;4.700;2023-03-01T09:04:24;2.10;96.30
8994;DHT22;4532;50.886;4.700;2023-03-01T09:06:53;2.10;96.10
8994;DHT22;4532;50.886;4.700;2023-03-01T09:09:20;2.10;96.20
8994;DHT22;4532;50.886;4.700;2023-03-01T09:11:48;2.20;96.10
8994;DHT22;4532;50.886;4.700;2023-03-01T09:14:17;2.30;96.30
8994;DHT22;4532;50.886;4.700;2023-03-01T09:16:49;2.40;96.20
8994;DHT22;4532;50.886;4.700;2023-03-01T09:19:16;2.40;96.20
8994;DHT22;4532;50.886;4.700;2023-03-01T09:21:45;2.50;96.20
8994;DHT22;4532;50.886;4.700;2023-03-01T09:24:23;2.50;96.50
8994;DHT22;4532;50.886;4.700;2023-03-01T09:26:54;2.60;96.20
8994;DHT22;4532;50.886;4.700;2023-03-01T09:29:23;2.70;96.30
8994;DHT22;4532;50.886;4.700;2023-03-01T09:31:53;2.70;96.30
8994;DHT22;4532;50.886;4.700;2023-03-01T09:34:22;2.80;96.40
8994;DHT22;4532;50.886;4.700;2023-03-01T09:36:50;2.90;96.40
8994;DHT22;4532;50.886;4.700;2023-03-01T09:39:20;3.00;96.30
8994;DHT22;4532;50.886;4.700;2023-03-01T09:42:04;3.00;96.60
8994;DHT22;4532;50.886;4.700;2023-03-01T09:47:19;3.10;96.70
8994;DHT22;4532;50.886;4.700;2023-03-01T09:50:15;3.20;96.60
8994;DHT22;4532;50.886;4.700;2023-03-01T09:53:15;3.30;96.60
8994;DHT22;4532;50.886;4.700;2023-03-01T09:55:51;3.30;96.80
8994;DHT22;4532;50.886;4.700;2023-03-01T10:00:56;3.40;96.70
8994;DHT22;4532;50.886;4.700;2023-03-01T10:11:05;3.70;96.80
8994;DHT22;4532;50.886;4.700;2023-03-01T10:19:21;3.80;96.80
8994;DHT22;4532;50.886;4.700;2023-03-01T10:21:50;3.90;96.90
8994;DHT22;4532;50.886;4.700;2023-03-01T10:24:19;3.90;96.80
8994;DHT22;4532;50.886;4.700;2023-03-01T10:27:01;4.00;96.90
8994;DHT22;4532;50.886;4.700;2023-03-01T10:29:37;4.10;97.00
8994;DHT22;4532;50.886;4.700;2023-03-01T10:32:05;4.10;96.90
8994;DHT22;4532;50.886;4.700;2023-03-01T10:34:37;4.20;97.00
8994;DHT22;4532;50.886;4.700;2023-03-01T10:37:21;4.20;96.80
8994;DHT22;4532;50.886;4.700;2023-03-01T10:40:01;4.30;96.80
8994;DHT22;4532;50.886;4.700;2023-03-01T10:48:04;4.50;96.70
8994;DHT22;4532;50.886;4.700;2023-03-01T10:50:32;4.50;96.60
8994;DHT22;4532;50.886;4.700;2023-03-01T10:53:03;4.60;96.70
8994;DHT22;4532;50.886;4.700;2023-03-01T10:55:40;4.60;96.70
8994;DHT22;4532;50.886;4.700;2023-03-01T11:00:46;4.80;96.80
8994;DHT22;4532;50.886;4.700;2023-03-01T11:03:20;4.90;96.90
8994;DHT22;4532;50.886;4.700;2023-03-01T11:08:45;5.10;97.10
8994;DHT22;4532;50.886;4.700;2023-03-01T11:11:32;5.10;97.00
8994;DHT22;4532;50.886;4.700;2023-03-01T11:14:07;5.10;96.70
8994;DHT22;4532;50.886;4.700;2023-03-01T11:17:13;5.10;96.70
8994;DHT22;4532;50.886;4.700;2023-03-01T11:19:42;5.10;96.40
8994;DHT22;4532;50.886;4.700;2023-03-01T11:22:20;5.20;96.50
8994;DHT22;4532;50.886;4.700;2023-03-01T11:24:55;5.20;96.60
8994;DHT22;4532;50.886;4.700;2023-03-01T11:27:43;5.20;96.70
8994;DHT22;4532;50.886;4.700;2023-03-01T11:30:22;5.40;97.30
8994;DHT22;4532;50.886;4.700;2023-03-01T11:33:03;5.40;96.90
8994;DHT22;4532;50.886;4.700;2023-03-01T11:35:36;5.40;96.50
8994;DHT22;4532;50.886;4.700;2023-03-01T11:40:40;5.60;96.90
8994;DHT22;4532;50.886;4.700;2023-03-01T11:51:55;5.70;96.40
8994;DHT22;4532;50.886;4.700;2023-03-01T12:08:41;6.00;96.80
8994;DHT22;4532;50.886;4.700;2023-03-01T12:17:32;6.10;96.50
8994;DHT22;4532;50.886;4.700;2023-03-01T12:25:55;6.40;96.10
8994;DHT22;4532;50.886;4.700;2023-03-01T12:28:49;6.30;96.00
8994;DHT22;4532;50.886;4.700;2023-03-01T12:36:41;6.50;96.60
8994;DHT22;4532;50.886;4.700;2023-03-01T12:48:17;6.60;96.10
8994;DHT22;4532;50.886;4.700;2023-03-01T12:50:53;6.60;96.80
8994;DHT22;4532;50.886;4.700;2023-03-01T12:53:34;6.70;96.40
8994;DHT22;4532;50.886;4.700;2023-03-01T12:59:01;6.70;96.10
8994;DHT22;4532;50.886;4.700;2023-03-01T13:07:52;6.80;96.40
8994;DHT22;4532;50.886;4.700;2023-03-01T13:15:49;6.90;96.50
8994;DHT22;4532;50.886;4.700;2023-03-01T13:20:55;6.90;96.00
8994;DHT22;4532;50.886;4.700;2023-03-01T13:23:26;7.00;96.30
8994;DHT22;4532;50.886;4.700;2023-03-01T13:33:55;7.10;95.90
8994;DHT22;4532;50.886;4.700;2023-03-01T13:39:04;7.10;95.30
8994;DHT22;4532;50.886;4.700;2023-03-01T13:44:30;7.10;95.20
8994;DHT22;4532;50.886;4.700;2023-03-01T13:47:16;7.10;95.60
8994;DHT22;4532;50.886;4.700;2023-03-01T13:57:50;7.30;96.20
8994;DHT22;4532;50.886;4.700;2023-03-01T14:00:40;7.30;96.00
8994;DHT22;4532;50.886;4.700;2023-03-01T14:05:42;7.50;96.30
8994;DHT22;4532;50.886;4.700;2023-03-01T14:08:21;7.60;96.60
8994;DHT22;4532;50.886;4.700;2023-03-01T14:19:31;7.60;95.80
8994;DHT22;4532;50.886;4.700;2023-03-01T14:22:22;7.60;96.40
8994;DHT22;4532;50.886;4.700;2023-03-01T14:25:00;7.70;96.70
8994;DHT22;4532;50.886;4.700;2023-03-01T14:27:35;7.70;96.00
8994;DHT22;4532;50.886;4.700;2023-03-01T14:30:14;7.70;95.30
8994;DHT22;4532;50.886;4.700;2023-03-01T14:32:55;7.70;96.00
8994;DHT22;4532;50.886;4.700;2023-03-01T14:35:30;7.80;96.50
8994;DHT22;4532;50.886;4.700;2023-03-01T14:37:58;7.80;96.30
8994;DHT22;4532;50.886;4.700;2023-03-01T14:40:42;7.90;95.90
8994;DHT22;4532;50.886;4.700;2023-03-01T14:43:17;7.90;96.10
8994;DHT22;4532;50.886;4.700;2023-03-01T14:45:50;7.90;96.00
8994;DHT22;4532;50.886;4.700;2023-03-01T14:48:20;8.00;96.50
8994;DHT22;4532;50.886;4.700;2023-03-01T14:50:50;8.00;96.30
8994;DHT22;4532;50.886;4.700;2023-03-01T14:53:20;8.00;96.00
8994;DHT22;4532;50.886;4.700;2023-03-01T14:55:53;8.00;96.00
8994;DHT22;4532;50.886;4.700;2023-03-01T14:58:25;8.00;96.10
8994;DHT22;4532;50.886;4.700;2023-03-01T15:00:58;8.10;95.90
8994;DHT22;4532;50.886;4.700;2023-03-01T15:06:06;8.00;95.00
8994;DHT22;4532;50.886;4.700;2023-03-01T15:08:41;8.00;95.70
8994;DHT22;4532;50.886;4.700;2023-03-01T15:11:31;8.00;94.40
8994;DHT22;4532;50.886;4.700;2023-03-01T15:13:59;8.00;95.10
8994;DHT22;4532;50.886;4.700;2023-03-01T15:16:36;8.00;95.20
8994;DHT22;4532;50.886;4.700;2023-03-01T15:19:16;8.10;95.00
8994;DHT22;4532;50.886;4.700;2023-03-01T15:21:49;8.10;95.90
8994;DHT22;4532;50.886;4.700;2023-03-01T15:24:20;8.20;96.10
8994;DHT22;4532;50.886;4.700;2023-03-01T15:27:01;8.20;96.00
8994;DHT22;4532;50.886;4.700;2023-03-01T15:29:34;8.20;95.90
8994;DHT22;4532;50.886;4.700;2023-03-01T15:32:34;8.30;96.00
8994;DHT22;4532;50.886;4.700;2023-03-01T15:38:01;8.20;95.70
8994;DHT22;4532;50.886;4.700;2023-03-01T15:40:31;8.30;95.90
8994;DHT22;4532;50.886;4.700;2023-03-01T15:42:59;8.30;95.80
8994;DHT22;4532;50.886;4.700;2023-03-01T15:45:31;8.20;95.40
8994;DHT22;4532;50.886;4.700;2023-03-01T15:48:03;8.30;95.70
8994;DHT22;4532;50.886;4.700;2023-03-01T15:50:36;8.20;94.90
8994;DHT22;4532;50.886;4.700;2023-03-01T15:53:15;8.20;95.10
8994;DHT22;4532;50.886;4.700;2023-03-01T15:55:46;8.20;95.10
8994;DHT22;4532;50.886;4.700;2023-03-01T15:58:21;8.20;95.40
8994;DHT22;4532;50.886;4.700;2023-03-01T16:00:52;8.20;94.70
8994;DHT22;4532;50.886;4.700;2023-03-01T16:03:31;8.20;95.50
8994;DHT22;4532;50.886;4.700;2023-03-01T16:06:01;8.30;95.50
8994;DHT22;4532;50.886;4.700;2023-03-01T16:08:28;8.30;95.70
8994;DHT22;4532;50.886;4.700;2023-03-01T16:10:56;8.30;95.80
8994;DHT22;4532;50.886;4.700;2023-03-01T16:13:23;8.40;95.90
8994;DHT22;4532;50.886;4.700;2023-03-01T16:16:00;8.40;95.80
8994;DHT22;4532;50.886;4.700;2023-03-01T16:18:27;8.50;95.50
8994;DHT22;4532;50.886;4.700;2023-03-01T16:20:57;8.50;95.90
8994;DHT22;4532;50.886;4.700;2023-03-01T16:23:24;8.50;95.30
8994;DHT22;4532;50.886;4.700;2023-03-01T16:25:51;8.40;94.70
8994;DHT22;4532;50.886;4.700;2023-03-01T16:28:19;8.40;94.70
8994;DHT22;4532;50.886;4.700;2023-03-01T16:30:48;8.40;95.30
8994;DHT22;4532;50.886;4.700;2023-03-01T16:33:20;8.50;95.60
8994;DHT22;4532;50.886;4.700;2023-03-01T16:35:58;8.50;95.60
8994;DHT22;4532;50.886;4.700;2023-03-01T16:38:27;8.60;95.80
8994;DHT22;4532;50.886;4.700;2023-03-01T16:40:57;8.60;95.80
8994;DHT22;4532;50.886;4.700;2023-03-01T16:43:26;8.60;95.90
8994;DHT22;4532;50.886;4.700;2023-03-01T16:45:56;8.60;95.60
8994;DHT22;4532;50.886;4.700;2023-03-01T16:48:25;8.60;95.90
8994;DHT22;4532;50.886;4.700;2023-03-01T16:50:58;8.60;95.80
8994;DHT22;4532;50.886;4.700;2023-03-01T16:53:28;8.60;95.70
8994;DHT22;4532;50.886;4.700;2023-03-01T16:55:59;8.60;95.70
8994;DHT22;4532;50.886;4.700;2023-03-01T16:58:30;8.50;95.60
8994;DHT22;4532;50.886;4.700;2023-03-01T17:01:13;8.50;95.70
8994;DHT22;4532;50.886;4.700;2023-03-01T17:03:43;8.40;95.20
8994;DHT22;4532;50.886;4.700;2023-03-01T17:06:13;8.40;95.40
8994;DHT22;4532;50.886;4.700;2023-03-01T17:08:41;8.40;95.60
8994;DHT22;4532;50.886;4.700;2023-03-01T17:11:10;8.30;95.30
8994;DHT22;4532;50.886;4.700;2023-03-01T17:13:38;8.30;95.50
8994;DHT22;4532;50.886;4.700;2023-03-01T17:16:07;8.30;95.40
8994;DHT22;4532;50.886;4.700;2023-03-01T17:18:37;8.20;95.10
8994;DHT22;4532;50.886;4.700;2023-03-01T17:21:05;8.10;95.00
8994;DHT22;4532;50.886;4.700;2023-03-01T17:23:34;8.10;95.20
8994;DHT22;4532;50.886;4.700;2023-03-01T17:26:02;8.10;95.40
8994;DHT22;4532;50.886;4.700;2023-03-01T17:28:32;8.00;95.10
8994;DHT22;4532;50.886;4.700;2023-03-01T17:31:04;8.00;95.20
8994;DHT22;4532;50.886;4.700;2023-03-01T17:33:34;7.90;95.00
8994;DHT22;4532;50.886;4.700;2023-03-01T17:36:07;7.80;95.00
8994;DHT22;4532;50.886;4.700;2023-03-01T17:38:36;7.80;95.00
8994;DHT22;4532;50.886;4.700;2023-03-01T17:41:04;7.70;94.80
8994;DHT22;4532;50.886;4.700;2023-03-01T17:43:31;7.70;95.00
8994;DHT22;4532;50.886;4.700;2023-03-01T17:46:03;7.70;95.00
8994;DHT22;4532;50.886;4.700;2023-03-01T17:48:35;7.60;95.00
8994;DHT22;4532;50.886;4.700;2023-03-01T17:51:12;7.60;95.10
8994;DHT22;4532;50.886;4.700;2023-03-01T17:53:39;7.60;94.90
8994;DHT22;4532;50.886;4.700;2023-03-01T17:56:09;7.50;94.80
8994;DHT22;4532;50.886;4.700;2023-03-01T17:58:42;7.50;95.00
8994;DHT22;4532;50.886;4.700;2023-03-01T18:01:19;7.40;94.90
8994;DHT22;4532;50.886;4.700;2023-03-01T18:03:49;7.30;94.90
8994;DHT22;4532;50.886;4.700;2023-03-01T18:06:18;7.30;94.90
8994;DHT22;4532;50.886;4.700;2023-03-01T18:08:48;7.30;94.90
8994;DHT22;4532;50.886;4.700;2023-03-01T18:11:23;7.20;94.60
8994;DHT22;4532;50.886;4.700;2023-03-01T18:13:54;7.10;94.80
8994;DHT22;4532;50.886;4.700;2023-03-01T18:16:22;7.10;94.90
8994;DHT22;4532;50.886;4.700;2023-03-01T18:18:54;7.10;94.80
8994;DHT22;4532;50.886;4.700;2023-03-01T18:21:26;7.00;94.50
8994;DHT22;4532;50.886;4.700;2023-03-01T18:23:54;7.00;94.70
8994;DHT22;4532;50.886;4.700;2023-03-01T18:26:22;7.00;94.80
8994;DHT22;4532;50.886;4.700;2023-03-01T18:28:53;7.00;94.90
8994;DHT22;4532;50.886;4.700;2023-03-01T18:31:25;7.00;94.90
8994;DHT22;4532;50.886;4.700;2023-03-01T18:34:01;7.00;94.90
8994;DHT22;4532;50.886;4.700;2023-03-01T18:36:33;6.90;94.90
8994;DHT22;4532;50.886;4.700;2023-03-01T18:39:02;6.90;94.60
8994;DHT22;4532;50.886;4.700;2023-03-01T18:41:31;6.90;94.80
8994;DHT22;4532;50.886;4.700;2023-03-01T18:44:03;6.80;94.80
8994;DHT22;4532;50.886;4.700;2023-03-01T18:46:31;6.90;94.90
8994;DHT22;4532;50.886;4.700;2023-03-01T18:49:03;6.80;94.80
8994;DHT22;4532;50.886;4.700;2023-03-01T18:51:30;6.80;94.90
8994;DHT22;4532;50.886;4.700;2023-03-01T18:54:00;6.80;94.90
8994;DHT22;4532;50.886;4.700;2023-03-01T18:56:31;6.80;94.90
8994;DHT22;4532;50.886;4.700;2023-03-01T18:58:59;6.80;94.80
8994;DHT22;4532;50.886;4.700;2023-03-01T19:01:30;6.70;94.80
8994;DHT22;4532;50.886;4.700;2023-03-01T19:04:04;6.70;94.80
8994;DHT22;4532;50.886;4.700;2023-03-01T19:06:33;6.60;94.80
8994;DHT22;4532;50.886;4.700;2023-03-01T19:09:05;6.60;94.80
8994;DHT22;4532;50.886;4.700;2023-03-01T19:11:33;6.60;94.90
8994;DHT22;4532;50.886;4.700;2023-03-01T19:14:06;6.60;94.90